Terminal Aerodrome Forecast
Issued by NWS

Current Version | Previous Version | Text Only | Print | Product List | Glossary Off
Versions: 1 2 3 4 5 6 7 8 9 10 11 12 13 14 15 16 17 18

000
FTUS41 KPBZ 300800 AAA
TAFMGW
TAF AMD
KMGW 300820Z 3008/3106 23010G18KT P6SM BKN017
      TEMPO 3009/3011 5SM -SHRASN
     FM301100 25010G18KT P6SM BKN025
     FM301400 27010G20KT P6SM BKN035
     FM310000 26005KT P6SM BKN050=

USA.gov is the U.S. government's official web portal to all federal, state and local government web resources and services.